Time;durP1;ratioP1;P1;durP2;ratioP2;P2;SDS_P1;SDS_P2;PMS_P1;PMS_P2;Temp;Humidity;BMP_temperature;BMP_pressure;BME280_temperature;BME280_humidity;BME280_pressure;Samples;Min_cycle;Max_cycle;Signal;HPM_P1;HPM_P2
2022/04/29 00:00:17;;;;;;;13.03;11.40;;;9.10;99.90;;;;;;5050942;28;20182;-66
2022/04/29 00:02:47;;;;;;;16.87;11.37;;;9.10;99.90;;;;;;5049530;28;20199;-66
2022/04/29 00:05:14;;;;;;;14.13;11.30;;;9.10;99.90;;;;;;5050315;28;20205;-65
2022/04/29 00:07:40;;;;;;;12.63;11.30;;;9.10;99.90;;;;;;5049691;28;20628;-66
2022/04/29 00:10:08;;;;;;;13.30;11.00;;;9.10;99.90;;;;;;5050724;28;20174;-66
2022/04/29 00:12:35;;;;;;;18.33;13.30;;;9.20;99.90;;;;;;5050610;28;20186;-67
2022/04/29 00:15:01;;;;;;;14.60;11.93;;;9.20;99.90;;;;;;5050817;28;20183;-66
2022/04/29 00:17:27;;;;;;;15.90;12.47;;;9.30;99.90;;;;;;5050313;28;20624;-66
2022/04/29 00:19:52;;;;;;;17.20;12.13;;;9.30;99.90;;;;;;5051040;28;20171;-67
2022/04/29 00:22:18;;;;;;;16.33;12.37;;;9.30;99.90;;;;;;5050667;28;20210;-66
2022/04/29 00:24:44;;;;;;;17.33;11.83;;;9.20;99.90;;;;;;5049103;28;20221;-67
2022/04/29 00:27:10;;;;;;;15.63;11.73;;;9.20;99.90;;;;;;5050563;28;20179;-66
2022/04/29 00:29:35;;;;;;;19.37;12.20;;;9.20;99.90;;;;;;5054705;28;20538;-67
2022/04/29 00:32:01;;;;;;;22.10;14.13;;;9.10;99.90;;;;;;5054593;28;20210;-66
2022/04/29 00:34:26;;;;;;;16.83;11.73;;;9.10;99.90;;;;;;5054404;28;20478;-66
2022/04/29 00:36:52;;;;;;;15.03;12.87;;;9.00;99.90;;;;;;5054631;28;20209;-66
2022/04/29 00:39:18;;;;;;;17.50;12.83;;;9.10;99.90;;;;;;5054195;28;20588;-67
2022/04/29 00:41:44;;;;;;;19.37;12.77;;;9.00;99.90;;;;;;5054645;28;20178;-66
2022/04/29 00:44:11;;;;;;;17.17;12.53;;;9.10;99.90;;;;;;5054383;28;20250;-66
2022/04/29 00:46:39;;;;;;;14.87;12.27;;;9.00;99.90;;;;;;5053925;28;20301;-66
2022/04/29 00:49:06;;;;;;;19.67;13.17;;;9.00;99.90;;;;;;5053137;28;20178;-66
2022/04/29 00:51:32;;;;;;;13.90;12.03;;;9.00;99.90;;;;;;5053986;28;20171;-66
2022/04/29 00:53:58;;;;;;;20.03;11.83;;;9.10;99.90;;;;;;5054366;28;20203;-66
2022/04/29 00:56:28;;;;;;;19.23;12.27;;;9.10;99.90;;;;;;5054058;28;20573;-65
2022/04/29 00:59:07;;;;;;;16.80;12.70;;;9.10;99.90;;;;;;5054304;28;20202;-66
2022/04/29 01:01:34;;;;;;;13.27;11.10;;;9.10;99.90;;;;;;5054045;28;20213;-66
2022/04/29 01:04:02;;;;;;;13.83;11.77;;;9.10;99.90;;;;;;5052646;28;20210;-65
2022/04/29 01:06:28;;;;;;;16.63;12.00;;;9.10;99.90;;;;;;5053248;28;20179;-66
2022/04/29 01:08:54;;;;;;;13.30;11.90;;;9.10;99.90;;;;;;5054026;28;20181;-67
2022/04/29 01:11:24;;;;;;;14.50;12.47;;;9.00;99.90;;;;;;5053625;28;20270;-67
2022/04/29 01:13:52;;;;;;;14.00;12.07;;;9.00;99.90;;;;;;5053984;28;20615;-65
2022/04/29 01:16:18;;;;;;;17.47;12.87;;;9.10;99.90;;;;;;5053417;28;20530;-66
2022/04/29 01:18:46;;;;;;;14.90;12.20;;;9.10;99.90;;;;;;5053820;28;20182;-65
2022/04/29 01:21:12;;;;;;;17.33;12.80;;;9.10;99.90;;;;;;5052230;28;20198;-66
2022/04/29 01:23:38;;;;;;;18.83;13.90;;;9.10;99.90;;;;;;5053472;28;20679;-66
2022/04/29 01:26:07;;;;;;;18.37;13.43;;;9.10;99.90;;;;;;5053001;28;20254;-66
2022/04/29 01:28:35;;;;;;;19.40;14.30;;;9.10;99.90;;;;;;5068188;28;20194;-66
2022/04/29 01:31:03;;;;;;;15.83;12.80;;;9.10;99.90;;;;;;5072385;28;20863;-67
2022/04/29 01:33:30;;;;;;;15.03;11.57;;;9.00;99.90;;;;;;5073557;28;20170;-66
2022/04/29 01:35:56;;;;;;;15.90;13.43;;;9.00;99.90;;;;;;5064952;28;20224;-66
2022/04/29 01:38:22;;;;;;;16.93;13.13;;;9.00;99.90;;;;;;5053099;28;20581;-66
2022/04/29 01:40:48;;;;;;;21.00;12.97;;;8.90;99.90;;;;;;5052427;28;20186;-67
2022/04/29 01:43:13;;;;;;;18.00;13.73;;;8.90;99.90;;;;;;5052993;28;20581;-66
2022/04/29 01:45:39;;;;;;;16.90;13.87;;;8.90;99.90;;;;;;5052924;28;20182;-66
2022/04/29 01:48:05;;;;;;;20.67;14.40;;;9.00;99.90;;;;;;5053088;28;20688;-66
2022/04/29 01:50:30;;;;;;;19.77;13.57;;;9.00;99.90;;;;;;5053152;28;20177;-67
2022/04/29 01:52:56;;;;;;;19.80;13.00;;;8.90;99.90;;;;;;5052962;28;20171;-66
2022/04/29 01:55:22;;;;;;;16.97;13.83;;;8.90;99.90;;;;;;5052702;28;20195;-66
2022/04/29 01:57:52;;;;;;;18.00;12.97;;;9.00;99.90;;;;;;5053139;28;20170;-66
2022/04/29 02:00:18;;;;;;;16.13;13.63;;;9.00;99.90;;;;;;5053105;28;20220;-66
2022/04/29 02:02:45;;;;;;;18.20;15.83;;;9.00;99.90;;;;;;5053279;28;20281;-66
2022/04/29 02:05:11;;;;;;;15.47;13.20;;;9.00;99.90;;;;;;5052425;28;20557;-66
2022/04/29 02:07:37;;;;;;;17.83;13.43;;;9.00;99.90;;;;;;5052648;28;20167;-66
2022/04/29 02:10:03;;;;;;;24.90;14.53;;;9.00;99.90;;;;;;5052698;28;20190;-66
2022/04/29 02:12:29;;;;;;;15.13;13.23;;;9.00;99.90;;;;;;5051144;28;20528;-66
2022/04/29 02:14:54;;;;;;;23.03;13.53;;;9.00;99.90;;;;;;5050972;28;20197;-66
2022/04/29 02:17:20;;;;;;;19.80;13.63;;;9.10;99.90;;;;;;5052541;28;20175;-66
2022/04/29 02:19:46;;;;;;;21.23;14.07;;;9.10;99.90;;;;;;5052864;28;20194;-66
2022/04/29 02:22:11;;;;;;;16.13;12.37;;;9.10;99.90;;;;;;5052649;28;20206;-66
2022/04/29 02:24:37;;;;;;;15.97;13.03;;;9.10;99.90;;;;;;5050734;28;20214;-66
2022/04/29 02:27:04;;;;;;;18.17;13.33;;;9.20;99.90;;;;;;5052538;28;20225;-66
2022/04/29 02:29:30;;;;;;;18.93;13.37;;;9.10;99.90;;;;;;5052322;28;20164;-67
2022/04/29 02:31:57;;;;;;;17.43;12.67;;;9.10;99.90;;;;;;5051153;28;20533;-66
2022/04/29 02:34:23;;;;;;;18.03;13.23;;;9.10;99.90;;;;;;5051938;28;20661;-67
2022/04/29 02:36:49;;;;;;;18.60;13.00;;;9.10;99.90;;;;;;5051851;28;20191;-66
2022/04/29 02:39:15;;;;;;;19.53;13.03;;;9.00;99.90;;;;;;5052159;28;20182;-66
2022/04/29 02:41:40;;;;;;;19.73;14.13;;;9.00;99.90;;;;;;5052378;28;20185;-67
2022/04/29 02:44:06;;;;;;;21.13;14.17;;;9.00;99.90;;;;;;5051934;28;20214;-66
2022/04/29 02:46:32;;;;;;;20.27;14.20;;;8.90;99.90;;;;;;5051877;28;20601;-66
2022/04/29 02:48:58;;;;;;;20.23;13.57;;;8.90;99.90;;;;;;5051888;28;20175;-65
2022/04/29 02:51:24;;;;;;;18.77;14.53;;;8.80;99.90;;;;;;5051722;28;20254;-67
2022/04/29 02:53:51;;;;;;;24.27;14.30;;;8.80;99.90;;;;;;5051924;28;20631;-66
2022/04/29 02:56:20;;;;;;;17.20;14.23;;;8.90;99.90;;;;;;5051538;28;20266;-67
2022/04/29 02:58:45;;;;;;;17.17;13.50;;;8.90;99.90;;;;;;5051843;28;20269;-66
2022/04/29 03:01:11;;;;;;;18.83;13.33;;;8.90;99.90;;;;;;5050445;28;20277;-66
2022/04/29 03:03:38;;;;;;;19.50;13.80;;;8.90;99.90;;;;;;5051484;28;20356;-67
2022/04/29 03:06:03;;;;;;;16.43;14.73;;;8.80;99.90;;;;;;5051316;28;20558;-66
2022/04/29 03:08:29;;;;;;;16.07;14.37;;;8.70;99.90;;;;;;5051678;28;20171;-66
2022/04/29 03:10:55;;;;;;;20.10;15.17;;;8.80;99.90;;;;;;5051596;28;20178;-65
2022/04/29 03:13:21;;;;;;;22.20;15.10;;;8.80;99.90;;;;;;5051568;28;20186;-67
2022/04/29 03:15:46;;;;;;;21.13;15.47;;;8.70;99.90;;;;;;5051044;28;20645;-65
2022/04/29 03:18:18;;;;;;;17.90;14.77;;;8.80;99.90;;;;;;5051565;28;20186;-66
2022/04/29 03:20:45;;;;;;;20.43;14.73;;;8.70;99.90;;;;;;5051238;28;20280;-66
2022/04/29 03:23:12;;;;;;;16.97;14.33;;;8.80;99.90;;;;;;5051500;28;20609;-66
2022/04/29 03:25:38;;;;;;;24.40;15.03;;;8.80;99.90;;;;;;5050755;28;20376;-66
2022/04/29 03:28:07;;;;;;;19.97;15.03;;;8.80;99.90;;;;;;5051734;28;20189;-66
2022/04/29 03:30:34;;;;;;;18.87;14.53;;;8.80;99.90;;;;;;5051052;28;20178;-66
2022/04/29 03:33:02;;;;;;;17.07;14.53;;;8.90;99.90;;;;;;5050287;28;20209;-67
2022/04/29 03:35:28;;;;;;;18.30;15.40;;;8.90;99.90;;;;;;5051038;28;20530;-66
2022/04/29 03:37:53;;;;;;;19.73;15.27;;;8.90;99.90;;;;;;5050087;28;20273;-66
2022/04/29 03:40:25;;;;;;;18.63;14.87;;;8.90;99.90;;;;;;5050985;28;20179;-66
2022/04/29 03:42:52;;;;;;;19.00;14.67;;;8.90;99.90;;;;;;5051386;28;20210;-66
2022/04/29 03:45:21;;;;;;;20.83;15.20;;;8.90;99.90;;;;;;5050595;28;20201;-66
2022/04/29 03:47:46;;;;;;;26.50;14.97;;;8.90;99.90;;;;;;5051107;28;20539;-66
2022/04/29 03:50:13;;;;;;;22.60;13.97;;;8.90;99.90;;;;;;5050882;28;20183;-65
2022/04/29 03:52:50;;;;;;;19.50;15.27;;;8.90;99.90;;;;;;5051039;28;20199;-66
2022/04/29 03:55:17;;;;;;;27.43;15.17;;;8.90;99.90;;;;;;5033422;28;20206;-66
2022/04/29 03:57:43;;;;;;;19.37;15.53;;;8.90;99.90;;;;;;5049686;28;20177;-66
2022/04/29 04:00:09;;;;;;;19.13;14.40;;;8.80;99.90;;;;;;5051013;28;20174;-66
2022/04/29 04:02:35;;;;;;;22.47;13.97;;;8.90;99.90;;;;;;5051797;28;20167;-66
2022/04/29 04:05:01;;;;;;;23.00;15.27;;;8.90;99.90;;;;;;5053406;28;20199;-65
2022/04/29 04:07:26;;;;;;;27.70;16.03;;;8.90;99.90;;;;;;5054976;28;20231;-67
2022/04/29 04:09:52;;;;;;;20.30;15.20;;;8.90;99.90;;;;;;5054900;28;20672;-66
2022/04/29 04:12:18;;;;;;;22.83;15.07;;;8.80;99.90;;;;;;5055061;28;20257;-66
2022/04/29 04:14:44;;;;;;;29.43;16.27;;;8.80;99.90;;;;;;5053815;28;20225;-67
2022/04/29 04:17:09;;;;;;;21.23;15.00;;;8.80;99.90;;;;;;5055023;28;20220;-66
2022/04/29 04:19:35;;;;;;;23.50;16.93;;;8.80;99.90;;;;;;5053127;28;20186;-67
2022/04/29 04:22:04;;;;;;;24.30;16.23;;;8.70;99.90;;;;;;5055189;28;20182;-67
2022/04/29 04:24:30;;;;;;;21.30;15.60;;;8.70;99.90;;;;;;5054324;28;20622;-67
2022/04/29 04:26:56;;;;;;;19.73;15.27;;;8.70;99.90;;;;;;5054994;28;20171;-66
2022/04/29 04:29:21;;;;;;;23.20;16.70;;;8.70;99.90;;;;;;5053118;28;20608;-67
2022/04/29 04:31:47;;;;;;;28.00;17.50;;;8.70;99.90;;;;;;5054534;28;20215;-67
2022/04/29 04:36:58;;;;;;;19.17;15.97;;;8.80;99.90;;;;;;5054891;28;20578;-67
2022/04/29 04:39:24;;;;;;;25.90;18.37;;;8.80;99.90;;;;;;5054556;28;20210;-67
2022/04/29 04:41:50;;;;;;;23.30;16.87;;;8.70;99.90;;;;;;5054231;28;20628;-66
2022/04/29 04:44:16;;;;;;;26.80;18.97;;;8.70;99.90;;;;;;5054470;28;20213;-66
2022/04/29 04:46:42;;;;;;;26.13;17.77;;;8.80;99.90;;;;;;5052666;28;20182;-67
2022/04/29 04:49:09;;;;;;;23.07;18.23;;;8.80;99.90;;;;;;5054592;28;20258;-67
2022/04/29 04:51:34;;;;;;;25.90;18.43;;;8.80;99.90;;;;;;5052630;28;20220;-66
2022/04/29 04:54:00;;;;;;;23.17;18.27;;;8.90;99.90;;;;;;5054425;28;20194;-67
2022/04/29 04:56:26;;;;;;;25.90;17.87;;;8.90;99.90;;;;;;5053994;28;20175;-67
2022/04/29 04:58:52;;;;;;;26.63;19.13;;;9.00;99.90;;;;;;5054364;28;20175;-66
2022/04/29 05:01:18;;;;;;;23.43;18.97;;;9.00;99.90;;;;;;5053887;28;20707;-66
2022/04/29 05:03:43;;;;;;;25.60;19.60;;;9.10;99.90;;;;;;5053567;28;20211;-67
2022/04/29 05:06:09;;;;;;;24.33;18.30;;;9.10;99.90;;;;;;5053918;28;20178;-67
2022/04/29 05:08:35;;;;;;;29.90;17.63;;;9.20;99.90;;;;;;5053765;28;20308;-66
2022/04/29 05:11:00;;;;;;;28.10;18.50;;;9.30;99.90;;;;;;5054107;28;20175;-67
2022/04/29 05:13:27;;;;;;;23.90;18.63;;;9.40;99.90;;;;;;5053570;28;20233;-67
2022/04/29 05:15:52;;;;;;;27.13;18.97;;;9.40;99.90;;;;;;5034096;28;20266;-67
2022/04/29 05:18:18;;;;;;;22.80;17.77;;;9.50;99.90;;;;;;5033907;28;20262;-66
2022/04/29 05:20:44;;;;;;;24.07;19.17;;;9.50;99.90;;;;;;5051090;28;20182;-67
2022/04/29 05:23:09;;;;;;;24.93;18.37;;;9.70;99.90;;;;;;5052627;28;20238;-66
2022/04/29 05:25:35;;;;;;;26.53;18.63;;;9.70;99.90;;;;;;5053225;28;20214;-66
2022/04/29 05:28:02;;;;;;;24.13;18.13;;;9.70;99.90;;;;;;5053420;28;20598;-67
2022/04/29 05:30:28;;;;;;;26.73;19.00;;;9.80;99.90;;;;;;5064067;28;20251;-67
2022/04/29 05:32:54;;;;;;;26.13;18.67;;;9.90;99.90;;;;;;5073521;28;20682;-67
2022/04/29 05:35:20;;;;;;;24.97;18.10;;;10.00;99.90;;;;;;5066969;28;20238;-66
2022/04/29 05:37:46;;;;;;;19.93;17.77;;;10.10;99.90;;;;;;5053278;28;20186;-66
2022/04/29 05:42:56;;;;;;;22.80;18.60;;;10.40;99.90;;;;;;5053161;28;20675;-66
2022/04/29 05:45:21;;;;;;;23.93;18.00;;;10.50;99.90;;;;;;5051391;28;20203;-66
2022/04/29 05:47:47;;;;;;;20.33;17.60;;;10.50;99.90;;;;;;5052932;28;20574;-66
2022/04/29 05:50:13;;;;;;;25.37;17.03;;;10.50;99.90;;;;;;5052176;28;20710;-66
2022/04/29 05:52:39;;;;;;;22.13;18.30;;;10.80;99.90;;;;;;5051621;28;20182;-66
2022/04/29 05:55:05;;;;;;;22.63;18.80;;;11.00;99.90;;;;;;5051149;28;20222;-66
2022/04/29 05:57:31;;;;;;;22.30;18.13;;;11.00;99.90;;;;;;5052678;28;20179;-66
2022/04/29 05:59:58;;;;;;;26.80;18.03;;;11.20;99.90;;;;;;5052812;28;20582;-66
2022/04/29 06:02:24;;;;;;;28.37;17.97;;;11.30;99.90;;;;;;5051409;28;20213;-69
2022/04/29 06:04:50;;;;;;;19.93;17.27;;;11.50;99.90;;;;;;5051168;28;20242;-66
2022/04/29 06:07:16;;;;;;;23.67;17.77;;;11.60;99.90;;;;;;5052549;28;20202;-65
2022/04/29 06:09:42;;;;;;;23.87;17.23;;;11.70;99.90;;;;;;5052494;28;20217;-67
2022/04/29 06:12:08;;;;;;;32.23;17.37;;;11.90;99.90;;;;;;5052731;28;20472;-67
2022/04/29 06:14:38;;;;;;;22.23;17.83;;;12.10;99.90;;;;;;5052294;28;20209;-67
2022/04/29 06:17:04;;;;;;;20.97;17.30;;;12.10;99.90;;;;;;5052374;28;20518;-67
2022/04/29 06:19:30;;;;;;;21.23;17.83;;;12.30;99.90;;;;;;5052459;28;20541;-65
2022/04/29 06:21:56;;;;;;;18.53;15.87;;;12.30;99.90;;;;;;5052778;28;20179;-67
2022/04/29 06:24:22;;;;;;;21.43;16.63;;;12.50;99.90;;;;;;5052413;28;20217;-66
2022/04/29 06:26:47;;;;;;;22.37;16.67;;;12.70;99.90;;;;;;5051308;28;20179;-67
2022/04/29 06:29:13;;;;;;;23.13;17.27;;;12.70;99.90;;;;;;5052796;28;20632;-66
2022/04/29 06:31:39;;;;;;;18.77;16.77;;;12.60;99.90;;;;;;5051809;28;20183;-66
2022/04/29 06:34:05;;;;;;;21.57;17.63;;;12.60;99.90;;;;;;5052246;28;20267;-65
2022/04/29 06:36:30;;;;;;;22.40;18.43;;;12.60;99.90;;;;;;5051677;28;20208;-67
2022/04/29 06:38:56;;;;;;;24.03;18.07;;;12.60;99.90;;;;;;5052398;28;20179;-67
2022/04/29 06:41:22;;;;;;;20.90;17.57;;;12.70;99.90;;;;;;5050085;28;20265;-67
2022/04/29 06:43:48;;;;;;;21.27;16.63;;;12.80;99.90;;;;;;5071001;28;20289;-66
2022/04/29 06:46:15;;;;;;;23.83;17.70;;;12.80;99.90;;;;;;5060996;28;20244;-67
2022/04/29 06:48:41;;;;;;;20.77;17.07;;;12.80;99.90;;;;;;5051213;28;20190;-66
2022/04/29 06:51:06;;;;;;;21.80;17.43;;;12.90;99.90;;;;;;5052308;28;20258;-66
2022/04/29 06:53:32;;;;;;;22.80;16.77;;;13.00;99.90;;;;;;5051001;28;20641;-67
2022/04/29 06:55:58;;;;;;;21.77;16.93;;;13.00;99.90;;;;;;5051235;28;20186;-66
2022/04/29 06:58:24;;;;;;;19.87;16.70;;;13.10;99.90;;;;;;5051214;28;20270;-67
2022/04/29 07:00:50;;;;;;;22.63;17.30;;;13.20;99.90;;;;;;5051889;28;20214;-67
2022/04/29 07:03:16;;;;;;;23.90;17.13;;;13.50;99.90;;;;;;5051140;28;20241;-66
2022/04/29 07:05:45;;;;;;;22.10;17.87;;;13.70;99.90;;;;;;5048704;28;20186;-66
2022/04/29 07:08:12;;;;;;;21.00;17.33;;;13.80;99.90;;;;;;5051077;28;20186;-66
2022/04/29 07:10:37;;;;;;;25.67;18.87;;;14.00;99.90;;;;;;5050856;28;20209;-66
2022/04/29 07:13:03;;;;;;;20.23;16.33;;;14.30;99.90;;;;;;5050781;28;20174;-66
2022/04/29 07:15:30;;;;;;;21.67;15.93;;;14.40;99.90;;;;;;5050472;28;20195;-66
2022/04/29 07:17:56;;;;;;;22.87;16.23;;;14.70;99.90;;;;;;5050561;28;20426;-66
2022/04/29 07:20:22;;;;;;;22.57;16.93;;;15.10;99.90;;;;;;5051037;28;20218;-66
2022/04/29 07:22:49;;;;;;;20.13;16.63;;;15.50;99.90;;;;;;5051410;28;20167;-66
2022/04/29 07:25:15;;;;;;;19.80;15.47;;;15.70;99.90;;;;;;5051496;28;20199;-66
2022/04/29 07:27:41;;;;;;;17.23;15.13;;;16.20;99.90;;;;;;5050314;28;20186;-66
2022/04/29 07:30:08;;;;;;;23.67;18.87;;;16.50;99.90;;;;;;5050560;28;20568;-66
2022/04/29 07:32:34;;;;;;;22.07;16.77;;;16.70;99.90;;;;;;5050305;28;20253;-66
2022/04/29 07:43:13;;;;;;;21.47;17.17;;;17.10;99.90;;;;;;5051924;28;20259;-66
2022/04/29 07:45:40;;;;;;;20.87;17.20;;;17.00;99.90;;;;;;5049837;28;20731;-67
2022/04/29 07:48:07;;;;;;;27.60;24.67;;;16.90;99.90;;;;;;5050508;28;20670;-68
2022/04/29 07:50:33;;;;;;;22.07;19.77;;;16.80;99.90;;;;;;5049953;28;20178;-66
2022/04/29 07:53:00;;;;;;;25.60;21.30;;;16.90;99.90;;;;;;5051600;28;20205;-66
2022/04/29 07:55:26;;;;;;;23.50;18.93;;;17.10;99.90;;;;;;5045442;28;20244;-66
2022/04/29 07:57:52;;;;;;;19.33;17.17;;;17.20;99.90;;;;;;5049614;28;20640;-66
2022/04/29 08:00:18;;;;;;;18.23;16.33;;;17.10;99.90;;;;;;5051159;28;20258;-66
2022/04/29 08:02:44;;;;;;;22.50;18.90;;;17.10;99.90;;;;;;5050664;28;20715;-67
2022/04/29 08:05:10;;;;;;;21.37;17.67;;;17.10;99.90;;;;;;5050714;28;20191;-67
2022/04/29 08:07:36;;;;;;;24.73;19.53;;;17.20;99.90;;;;;;5046350;28;20264;-67
2022/04/29 08:10:03;;;;;;;23.17;17.73;;;17.20;99.90;;;;;;5051177;28;20171;-66
2022/04/29 08:12:29;;;;;;;21.83;19.53;;;17.10;99.90;;;;;;5050784;28;20175;-66
2022/04/29 08:14:54;;;;;;;24.23;21.13;;;17.10;99.90;;;;;;5050516;28;20220;-67
2022/04/29 08:17:20;;;;;;;23.50;19.67;;;17.00;99.90;;;;;;5050853;28;20179;-67
2022/04/29 08:19:48;;;;;;;22.30;16.67;;;17.00;99.90;;;;;;5048647;28;20183;-67
2022/04/29 08:22:16;;;;;;;25.00;18.20;;;17.10;99.90;;;;;;5050233;28;20171;-66
2022/04/29 08:24:42;;;;;;;22.00;18.53;;;16.90;99.90;;;;;;5050409;28;20357;-66
2022/04/29 08:27:08;;;;;;;25.70;20.53;;;16.70;99.90;;;;;;5050981;28;20175;-67
2022/04/29 08:29:34;;;;;;;22.27;17.93;;;16.60;99.90;;;;;;5050822;28;20632;-65
2022/04/29 08:31:59;;;;;;;29.60;19.70;;;16.60;99.90;;;;;;5050977;28;20229;-66
2022/04/29 08:34:25;;;;;;;22.87;18.70;;;16.60;99.90;;;;;;5050713;28;20264;-67
2022/04/29 08:36:51;;;;;;;22.10;18.90;;;16.50;99.90;;;;;;5050971;28;20173;-66
2022/04/29 08:39:17;;;;;;;25.23;20.17;;;16.30;99.90;;;;;;5050968;28;20177;-66
2022/04/29 08:41:42;;;;;;;23.73;19.37;;;16.30;99.90;;;;;;5050898;28;20182;-66
2022/04/29 08:44:13;;;;;;;21.53;19.00;;;16.30;99.90;;;;;;5049266;28;20214;-66
2022/04/29 08:46:40;;;;;;;24.10;19.27;;;16.40;99.90;;;;;;5050661;28;20171;-67
2022/04/29 08:49:07;;;;;;;26.97;20.10;;;16.40;99.90;;;;;;5051149;28;20603;-67
2022/04/29 08:51:34;;;;;;;23.00;20.33;;;16.60;99.90;;;;;;5054574;28;20167;-68
2022/04/29 08:54:04;;;;;;;25.97;21.17;;;16.80;99.90;;;;;;5053070;28;20198;-66
2022/04/29 08:59:20;;;;;;;23.60;18.73;;;16.80;99.90;;;;;;5054466;28;20241;-67
2022/04/29 09:01:45;;;;;;;30.30;25.37;;;16.80;99.90;;;;;;5054513;28;20175;-67
2022/04/29 09:04:11;;;;;;;22.63;17.77;;;16.80;99.90;;;;;;5054162;28;20210;-67
2022/04/29 09:06:50;;;;;;;24.07;20.33;;;16.60;99.90;;;;;;5053895;28;20171;-66
2022/04/29 09:09:23;;;;;;;23.27;19.00;;;16.40;99.90;;;;;;5054358;28;20723;-67
2022/04/29 09:11:49;;;;;;;21.80;19.37;;;16.50;99.90;;;;;;5054244;28;20223;-67
2022/04/29 09:14:25;;;;;;;26.77;19.00;;;16.40;99.90;;;;;;5054036;28;20266;-67
2022/04/29 09:16:51;;;;;;;25.13;20.47;;;16.30;99.90;;;;;;5053799;28;20754;-68
2022/04/29 09:19:34;;;;;;;22.93;19.53;;;16.40;99.90;;;;;;5054267;28;20266;-67
2022/04/29 09:22:07;;;;;;;20.70;18.60;;;16.20;99.90;;;;;;5052759;28;20174;-66
2022/04/29 09:24:34;;;;;;;21.20;18.93;;;16.30;99.90;;;;;;5053446;28;20206;-67
2022/04/29 09:27:05;;;;;;;24.37;20.83;;;16.40;99.90;;;;;;5053814;28;20223;-66
2022/04/29 09:29:41;;;;;;;22.67;18.33;;;16.40;99.90;;;;;;5053786;28;20163;-67
2022/04/29 09:32:07;;;;;;;25.33;19.10;;;16.50;99.90;;;;;;5053109;28;20190;-67
2022/04/29 09:34:53;;;;;;;27.70;21.70;;;16.90;99.90;;;;;;5053158;28;20290;-67
2022/04/29 09:37:19;;;;;;;22.93;20.50;;;17.30;99.90;;;;;;5054288;28;20170;-67
2022/04/29 09:39:56;;;;;;;20.67;17.27;;;17.60;99.90;;;;;;5053461;28;20171;-66
2022/04/29 09:42:22;;;;;;;17.77;15.70;;;17.70;99.90;;;;;;5053459;28;20201;-67
2022/04/29 09:44:48;;;;;;;24.50;16.20;;;17.90;99.90;;;;;;5053141;28;20202;-67
2022/04/29 09:47:15;;;;;;;19.60;15.07;;;18.40;99.90;;;;;;5053632;28;20321;-67
2022/04/29 09:49:50;;;;;;;19.73;15.43;;;18.90;99.90;;;;;;5053501;28;20567;-67
2022/04/29 09:52:18;;;;;;;18.10;15.17;;;19.10;99.90;;;;;;5053620;28;20171;-67
2022/04/29 09:54:44;;;;;;;22.77;14.57;;;19.20;99.90;;;;;;5053009;28;20671;-72
2022/04/29 09:57:18;;;;;;;18.60;14.63;;;19.40;99.90;;;;;;5052571;28;20221;-67
2022/04/29 09:59:48;;;;;;;23.27;15.17;;;19.20;99.90;;;;;;5055243;28;20171;-65
2022/04/29 10:02:17;;;;;;;22.30;14.93;;;18.80;99.90;;;;;;5064831;28;20186;-65
2022/04/29 10:04:44;;;;;;;20.13;15.97;;;18.50;99.90;;;;;;5051158;28;20298;-67
2022/04/29 10:07:12;;;;;;;20.60;15.10;;;18.20;99.90;;;;;;5053162;28;20175;-67
2022/04/29 10:09:42;;;;;;;19.10;15.30;;;18.10;99.90;;;;;;5051735;28;20186;-67
2022/04/29 10:12:13;;;;;;;18.17;14.83;;;18.10;99.90;;;;;;5052243;28;20171;-67
2022/04/29 10:14:40;;;;;;;18.93;15.80;;;18.10;99.90;;;;;;5052688;28;20199;-66
2022/04/29 10:22:51;;;;;;;18.60;15.27;;;17.40;99.90;;;;;;5052579;28;20170;-67
2022/04/29 10:25:19;;;;;;;19.57;13.83;;;17.50;99.90;;;;;;5052324;28;20218;-66
2022/04/29 10:27:46;;;;;;;20.00;13.97;;;17.70;99.90;;;;;;5052204;28;20166;-66
2022/04/29 10:30:12;;;;;;;18.63;13.30;;;18.10;99.90;;;;;;5052762;28;20194;-66
2022/04/29 10:33:14;;;;;;;22.40;13.53;;;18.20;99.90;;;;;;5051113;28;20167;-66
2022/04/29 10:35:42;;;;;;;20.90;12.73;;;18.50;99.90;;;;;;5032024;28;20191;-66
2022/04/29 10:38:34;;;;;;;19.93;13.83;;;19.30;99.90;;;;;;5039604;28;20190;-66
2022/04/29 10:41:20;;;;;;;25.77;12.80;;;19.70;99.90;;;;;;5059218;28;20178;-67
2022/04/29 10:43:50;;;;;;;14.47;12.17;;;20.10;99.90;;;;;;5051222;28;20206;-66
2022/04/29 10:46:32;;;;;;;19.73;12.23;;;20.70;99.90;;;;;;5057810;28;20193;-67
2022/04/29 10:49:18;;;;;;;13.98;12.20;;;20.60;99.90;;;;;;5071031;28;20208;-67
2022/04/29 10:51:52;;;;;;;16.83;11.85;;;20.30;99.90;;;;;;5054562;28;20662;-66
2022/04/29 10:54:33;;;;;;;14.10;11.20;;;20.30;99.90;;;;;;5051696;28;20263;-67
2022/04/29 10:57:04;;;;;;;21.45;13.35;;;20.30;99.90;;;;;;5049511;28;20194;-67
2022/04/29 10:59:57;;;;;;;15.87;11.47;;;20.20;99.90;;;;;;5050296;28;20586;-67
2022/04/29 11:02:28;;;;;;;19.43;11.57;;;20.20;99.90;;;;;;5051761;28;20273;-66
2022/04/29 11:04:55;;;;;;;16.60;11.43;;;20.00;99.90;;;;;;5050924;28;20337;-66
2022/04/29 11:07:41;;;;;;;14.20;12.13;;;20.20;99.90;;;;;;5051409;28;20178;-66
2022/04/29 11:10:09;;;;;;;17.27;11.10;;;19.90;99.90;;;;;;5051062;28;20175;-67
2022/04/29 11:12:39;;;;;;;12.43;10.95;;;19.90;99.90;;;;;;5051513;28;20167;-66
2022/04/29 11:15:18;;;;;;;14.88;11.70;;;20.20;99.90;;;;;;5051397;28;20214;-66
2022/04/29 11:17:44;;;;;;;16.05;11.10;;;20.20;99.90;;;;;;5049875;28;20262;-67
2022/04/29 11:20:13;;;;;;;12.10;10.60;;;20.20;99.90;;;;;;5051436;28;20198;-67
2022/04/29 11:25:24;;;;;;;17.07;11.00;;;20.10;99.90;;;;;;5031038;28;20194;-66
2022/04/29 11:27:51;;;;;;;18.50;10.65;;;20.00;99.90;;;;;;5033163;28;20171;-68
2022/04/29 11:30:16;;;;;;;15.98;11.45;;;20.40;99.90;;;;;;5049853;28;20182;-66
2022/04/29 11:32:42;;;;;;;15.55;10.88;;;20.80;99.90;;;;;;5049679;28;20175;-67
2022/04/29 11:35:08;;;;;;;15.95;10.80;;;21.10;99.90;;;;;;5050276;28;20210;-65
2022/04/29 11:37:34;;;;;;;12.15;10.85;;;21.00;99.90;;;;;;5050682;28;20270;-66
2022/04/29 11:40:05;;;;;;;18.73;11.13;;;20.80;99.90;;;;;;5053756;28;20181;-66
2022/04/29 11:42:31;;;;;;;13.43;11.23;;;20.70;99.90;;;;;;5070468;28;20201;-64
2022/04/29 11:45:07;;;;;;;13.63;10.15;;;20.40;99.90;;;;;;5058694;28;20214;-64
2022/04/29 11:47:33;;;;;;;15.75;11.35;;;20.50;99.90;;;;;;5050702;28;20182;-65
2022/04/29 11:50:00;;;;;;;13.73;10.20;;;20.60;99.90;;;;;;5050491;28;20250;-66
2022/04/29 11:52:29;;;;;;;14.67;10.43;;;20.40;99.90;;;;;;5050842;28;20198;-66
2022/04/29 11:55:02;;;;;;;14.18;10.48;;;20.50;99.90;;;;;;5050483;28;20198;-66
2022/04/29 11:57:30;;;;;;;15.53;10.50;;;20.60;99.90;;;;;;5050673;28;20195;-66
2022/04/29 11:59:56;;;;;;;16.13;9.95;;;20.60;99.90;;;;;;5050845;28;20267;-66
2022/04/29 12:02:24;;;;;;;13.93;11.07;;;20.60;99.90;;;;;;5049350;28;20187;-65
2022/04/29 12:05:04;;;;;;;17.30;11.40;;;20.70;99.90;;;;;;5050343;28;20680;-66
2022/04/29 12:07:42;;;;;;;16.27;11.00;;;21.00;99.90;;;;;;5030861;28;20184;-66
2022/04/29 12:10:26;;;;;;;17.70;11.68;;;21.20;99.90;;;;;;5047160;28;20368;-66
2022/04/29 12:13:03;;;;;;;14.52;10.00;;;21.40;99.90;;;;;;5050862;28;20182;-66
2022/04/29 12:15:35;;;;;;;14.50;10.53;;;21.60;99.90;;;;;;5050584;28;20233;-66
2022/04/29 12:18:11;;;;;;;15.48;10.75;;;21.40;99.90;;;;;;5050392;28;20206;-65
2022/04/29 12:20:38;;;;;;;15.35;12.18;;;21.30;99.90;;;;;;5050641;28;20182;-66
2022/04/29 12:23:09;;;;;;;12.15;10.77;;;21.10;99.90;;;;;;5050426;28;20543;-66
2022/04/29 12:25:42;;;;;;;14.25;11.55;;;21.20;99.90;;;;;;5054280;28;20225;-66
2022/04/29 12:28:22;;;;;;;14.18;11.05;;;21.30;99.90;;;;;;5052999;28;20206;-66
2022/04/29 12:36:48;;;;;;;16.03;11.43;;;20.60;99.90;;;;;;5054465;28;20185;-66
2022/04/29 12:39:15;;;;;;;14.17;11.57;;;20.70;99.90;;;;;;5054637;28;20171;-66
2022/04/29 12:41:42;;;;;;;14.70;13.03;;;20.70;99.90;;;;;;5054604;28;20636;-66
2022/04/29 12:46:56;;;;;;;16.00;10.98;;;20.30;99.90;;;;;;5054600;28;20663;-66
2022/04/29 12:49:22;;;;;;;14.03;11.40;;;20.00;99.90;;;;;;5054014;28;20171;-66
2022/04/29 12:51:59;;;;;;;18.97;11.93;;;19.80;99.90;;;;;;5054568;28;20167;-66
2022/04/29 12:54:26;;;;;;;16.13;12.00;;;19.70;99.90;;;;;;5053517;28;20252;-66
2022/04/29 12:56:52;;;;;;;15.17;11.60;;;19.60;99.90;;;;;;5054558;28;20171;-66
2022/04/29 12:59:22;;;;;;;16.73;11.60;;;19.50;99.90;;;;;;5053341;28;20171;-66
2022/04/29 13:01:48;;;;;;;19.70;10.70;;;19.30;99.90;;;;;;5054448;28;20162;-66
2022/04/29 13:04:13;;;;;;;18.43;11.97;;;19.10;99.90;;;;;;5054470;28;20211;-66
2022/04/29 13:06:39;;;;;;;17.53;11.77;;;19.10;99.90;;;;;;5054430;28;20179;-68